sensor_id;sensor_type;location;lat;lon;timestamp;P1;durP1;ratioP1;P2;durP2;ratioP2
4553;SDS011;2289;48.316;15.174;2023-05-10T00:00:06;5.10;;;3.10;;
4553;SDS011;2289;48.316;15.174;2023-05-10T00:02:36;3.60;;;3.30;;
4553;SDS011;2289;48.316;15.174;2023-05-10T00:05:07;4.53;;;3.33;;
4553;SDS011;2289;48.316;15.174;2023-05-10T00:07:36;8.80;;;3.10;;
4553;SDS011;2289;48.316;15.174;2023-05-10T00:10:06;4.50;;;4.10;;
4553;SDS011;2289;48.316;15.174;2023-05-10T00:12:35;3.40;;;3.10;;
4553;SDS011;2289;48.316;15.174;2023-05-10T00:15:05;4.50;;;4.10;;
4553;SDS011;2289;48.316;15.174;2023-05-10T00:17:35;4.67;;;3.80;;
4553;SDS011;2289;48.316;15.174;2023-05-10T00:20:05;5.93;;;3.30;;
4553;SDS011;2289;48.316;15.174;2023-05-10T00:22:36;6.50;;;3.57;;
4553;SDS011;2289;48.316;15.174;2023-05-10T00:25:05;4.10;;;3.70;;
4553;SDS011;2289;48.316;15.174;2023-05-10T00:27:35;3.70;;;3.23;;
4553;SDS011;2289;48.316;15.174;2023-05-10T00:30:04;5.07;;;3.40;;
4553;SDS011;2289;48.316;15.174;2023-05-10T00:32:34;3.90;;;3.40;;
4553;SDS011;2289;48.316;15.174;2023-05-10T00:35:03;4.37;;;3.70;;
4553;SDS011;2289;48.316;15.174;2023-05-10T00:37:34;4.70;;;3.63;;
4553;SDS011;2289;48.316;15.174;2023-05-10T00:40:03;3.50;;;3.20;;
4553;SDS011;2289;48.316;15.174;2023-05-10T00:42:33;7.10;;;4.63;;
4553;SDS011;2289;48.316;15.174;2023-05-10T00:45:02;3.43;;;3.13;;
4553;SDS011;2289;48.316;15.174;2023-05-10T00:47:30;2.97;;;2.77;;
4553;SDS011;2289;48.316;15.174;2023-05-10T00:50:00;3.40;;;3.10;;
4553;SDS011;2289;48.316;15.174;2023-05-10T00:52:29;4.30;;;2.73;;
4553;SDS011;2289;48.316;15.174;2023-05-10T00:55:00;17.90;;;3.30;;
4553;SDS011;2289;48.316;15.174;2023-05-10T00:57:30;4.33;;;3.53;;
4553;SDS011;2289;48.316;15.174;2023-05-10T00:59:59;3.37;;;3.07;;
4553;SDS011;2289;48.316;15.174;2023-05-10T01:02:28;3.60;;;2.93;;
4553;SDS011;2289;48.316;15.174;2023-05-10T01:04:57;3.47;;;3.17;;
4553;SDS011;2289;48.316;15.174;2023-05-10T01:07:26;4.00;;;2.70;;
4553;SDS011;2289;48.316;15.174;2023-05-10T01:09:55;7.43;;;3.57;;
4553;SDS011;2289;48.316;15.174;2023-05-10T01:12:25;5.10;;;3.50;;
4553;SDS011;2289;48.316;15.174;2023-05-10T01:14:54;8.17;;;2.90;;
4553;SDS011;2289;48.316;15.174;2023-05-10T01:17:23;6.03;;;3.37;;
4553;SDS011;2289;48.316;15.174;2023-05-10T01:19:53;3.40;;;3.10;;
4553;SDS011;2289;48.316;15.174;2023-05-10T01:22:30;3.23;;;2.67;;
4553;SDS011;2289;48.316;15.174;2023-05-10T01:25:22;4.00;;;3.60;;
4553;SDS011;2289;48.316;15.174;2023-05-10T01:34:06;4.43;;;3.00;;
4553;SDS011;2289;48.316;15.174;2023-05-10T01:36:39;4.07;;;2.67;;
4553;SDS011;2289;48.316;15.174;2023-05-10T01:39:11;3.40;;;2.60;;
4553;SDS011;2289;48.316;15.174;2023-05-10T01:41:48;4.47;;;3.10;;
4553;SDS011;2289;48.316;15.174;2023-05-10T01:44:21;3.17;;;2.43;;
4553;SDS011;2289;48.316;15.174;2023-05-10T01:46:56;6.13;;;3.00;;
4553;SDS011;2289;48.316;15.174;2023-05-10T01:49:30;9.53;;;3.63;;
4553;SDS011;2289;48.316;15.174;2023-05-10T01:52:05;16.67;;;4.07;;
4553;SDS011;2289;48.316;15.174;2023-05-10T01:54:36;3.77;;;2.73;;
4553;SDS011;2289;48.316;15.174;2023-05-10T01:57:07;5.97;;;2.60;;
4553;SDS011;2289;48.316;15.174;2023-05-10T01:59:39;3.47;;;2.87;;
4553;SDS011;2289;48.316;15.174;2023-05-10T02:02:08;4.40;;;3.30;;
4553;SDS011;2289;48.316;15.174;2023-05-10T02:04:40;9.27;;;4.97;;
4553;SDS011;2289;48.316;15.174;2023-05-10T02:07:10;6.03;;;3.07;;
4553;SDS011;2289;48.316;15.174;2023-05-10T02:09:39;3.93;;;2.60;;
4553;SDS011;2289;48.316;15.174;2023-05-10T02:12:09;4.93;;;3.10;;
4553;SDS011;2289;48.316;15.174;2023-05-10T02:14:38;4.57;;;3.53;;
4553;SDS011;2289;48.316;15.174;2023-05-10T02:17:12;9.20;;;2.80;;
4553;SDS011;2289;48.316;15.174;2023-05-10T02:19:42;6.03;;;3.83;;
4553;SDS011;2289;48.316;15.174;2023-05-10T02:22:12;3.63;;;3.33;;
4553;SDS011;2289;48.316;15.174;2023-05-10T02:24:41;3.73;;;2.70;;
4553;SDS011;2289;48.316;15.174;2023-05-10T02:27:11;5.40;;;3.30;;
4553;SDS011;2289;48.316;15.174;2023-05-10T02:29:40;4.90;;;3.43;;
4553;SDS011;2289;48.316;15.174;2023-05-10T02:32:09;5.00;;;3.50;;
4553;SDS011;2289;48.316;15.174;2023-05-10T02:34:39;9.80;;;3.33;;
4553;SDS011;2289;48.316;15.174;2023-05-10T02:37:10;3.20;;;2.80;;
4553;SDS011;2289;48.316;15.174;2023-05-10T02:39:40;5.87;;;3.50;;
4553;SDS011;2289;48.316;15.174;2023-05-10T02:42:13;5.30;;;3.60;;
4553;SDS011;2289;48.316;15.174;2023-05-10T02:44:45;9.33;;;3.93;;
4553;SDS011;2289;48.316;15.174;2023-05-10T02:47:16;6.50;;;3.37;;
4553;SDS011;2289;48.316;15.174;2023-05-10T02:49:46;5.00;;;3.53;;
4553;SDS011;2289;48.316;15.174;2023-05-10T02:52:19;2.70;;;2.20;;
4553;SDS011;2289;48.316;15.174;2023-05-10T02:54:52;2.93;;;2.63;;
4553;SDS011;2289;48.316;15.174;2023-05-10T02:57:25;3.47;;;3.17;;
4553;SDS011;2289;48.316;15.174;2023-05-10T02:59:55;4.00;;;3.07;;
4553;SDS011;2289;48.316;15.174;2023-05-10T03:02:25;3.77;;;2.50;;
4553;SDS011;2289;48.316;15.174;2023-05-10T03:04:54;6.23;;;2.33;;
4553;SDS011;2289;48.316;15.174;2023-05-10T03:07:25;3.97;;;2.80;;
4553;SDS011;2289;48.316;15.174;2023-05-10T03:09:54;3.03;;;2.70;;
4553;SDS011;2289;48.316;15.174;2023-05-10T03:12:25;7.90;;;3.87;;
4553;SDS011;2289;48.316;15.174;2023-05-10T03:15:00;2.93;;;2.70;;
4553;SDS011;2289;48.316;15.174;2023-05-10T03:17:35;4.43;;;3.43;;
4553;SDS011;2289;48.316;15.174;2023-05-10T03:20:10;3.53;;;3.10;;
4553;SDS011;2289;48.316;15.174;2023-05-10T03:22:43;2.80;;;2.60;;
4553;SDS011;2289;48.316;15.174;2023-05-10T03:25:14;2.97;;;2.77;;
4553;SDS011;2289;48.316;15.174;2023-05-10T03:27:43;2.90;;;2.70;;
4553;SDS011;2289;48.316;15.174;2023-05-10T03:30:13;3.43;;;3.13;;
4553;SDS011;2289;48.316;15.174;2023-05-10T03:32:43;3.73;;;3.30;;
4553;SDS011;2289;48.316;15.174;2023-05-10T03:35:12;3.07;;;2.77;;
4553;SDS011;2289;48.316;15.174;2023-05-10T03:37:43;4.57;;;3.33;;
4553;SDS011;2289;48.316;15.174;2023-05-10T03:40:12;6.70;;;3.50;;
4553;SDS011;2289;48.316;15.174;2023-05-10T03:42:41;3.23;;;2.93;;
4553;SDS011;2289;48.316;15.174;2023-05-10T03:45:12;3.60;;;3.07;;
4553;SDS011;2289;48.316;15.174;2023-05-10T03:47:41;3.50;;;2.50;;
4553;SDS011;2289;48.316;15.174;2023-05-10T03:50:10;5.53;;;3.33;;
4553;SDS011;2289;48.316;15.174;2023-05-10T03:52:39;3.33;;;3.00;;
4553;SDS011;2289;48.316;15.174;2023-05-10T03:55:10;4.50;;;3.00;;
4553;SDS011;2289;48.316;15.174;2023-05-10T03:57:39;5.63;;;2.77;;
4553;SDS011;2289;48.316;15.174;2023-05-10T04:00:08;3.17;;;2.87;;
4553;SDS011;2289;48.316;15.174;2023-05-10T04:02:38;3.43;;;3.00;;
4553;SDS011;2289;48.316;15.174;2023-05-10T04:05:10;3.80;;;3.40;;
4553;SDS011;2289;48.316;15.174;2023-05-10T04:07:39;7.73;;;3.50;;
4553;SDS011;2289;48.316;15.174;2023-05-10T04:10:09;12.67;;;4.43;;
4553;SDS011;2289;48.316;15.174;2023-05-10T04:12:38;7.13;;;4.27;;
4553;SDS011;2289;48.316;15.174;2023-05-10T04:15:08;5.07;;;4.00;;
4553;SDS011;2289;48.316;15.174;2023-05-10T04:17:37;8.43;;;5.47;;
4553;SDS011;2289;48.316;15.174;2023-05-10T04:20:07;7.80;;;4.70;;
4553;SDS011;2289;48.316;15.174;2023-05-10T04:22:37;8.10;;;4.47;;
4553;SDS011;2289;48.316;15.174;2023-05-10T04:25:06;9.00;;;5.23;;
4553;SDS011;2289;48.316;15.174;2023-05-10T04:27:37;7.20;;;4.40;;
4553;SDS011;2289;48.316;15.174;2023-05-10T04:30:06;9.17;;;5.07;;
4553;SDS011;2289;48.316;15.174;2023-05-10T04:32:36;10.80;;;5.40;;
4553;SDS011;2289;48.316;15.174;2023-05-10T04:35:05;8.83;;;5.60;;
4553;SDS011;2289;48.316;15.174;2023-05-10T04:37:36;10.13;;;5.73;;
4553;SDS011;2289;48.316;15.174;2023-05-10T04:40:05;15.20;;;5.77;;
4553;SDS011;2289;48.316;15.174;2023-05-10T04:42:36;9.47;;;5.27;;
4553;SDS011;2289;48.316;15.174;2023-05-10T04:45:06;7.93;;;5.60;;
4553;SDS011;2289;48.316;15.174;2023-05-10T04:47:36;20.57;;;5.53;;
4553;SDS011;2289;48.316;15.174;2023-05-10T04:50:05;7.87;;;4.80;;
4553;SDS011;2289;48.316;15.174;2023-05-10T04:52:34;10.80;;;5.20;;
4553;SDS011;2289;48.316;15.174;2023-05-10T04:55:03;9.03;;;5.60;;
4553;SDS011;2289;48.316;15.174;2023-05-10T04:57:34;10.50;;;5.77;;
4553;SDS011;2289;48.316;15.174;2023-05-10T05:00:09;12.67;;;6.10;;
4553;SDS011;2289;48.316;15.174;2023-05-10T05:02:38;7.30;;;5.30;;
4553;SDS011;2289;48.316;15.174;2023-05-10T05:05:07;7.83;;;5.13;;
4553;SDS011;2289;48.316;15.174;2023-05-10T05:07:36;6.03;;;4.77;;
4553;SDS011;2289;48.316;15.174;2023-05-10T05:10:05;6.47;;;4.40;;
4553;SDS011;2289;48.316;15.174;2023-05-10T05:12:35;6.30;;;4.60;;
4553;SDS011;2289;48.316;15.174;2023-05-10T05:15:05;4.87;;;3.90;;
4553;SDS011;2289;48.316;15.174;2023-05-10T05:17:36;4.13;;;3.70;;
4553;SDS011;2289;48.316;15.174;2023-05-10T05:20:05;5.27;;;4.10;;
4553;SDS011;2289;48.316;15.174;2023-05-10T05:22:35;9.83;;;4.13;;
4553;SDS011;2289;48.316;15.174;2023-05-10T05:25:04;9.63;;;5.00;;
4553;SDS011;2289;48.316;15.174;2023-05-10T05:27:34;8.70;;;3.80;;
4553;SDS011;2289;48.316;15.174;2023-05-10T05:30:02;7.23;;;5.57;;
4553;SDS011;2289;48.316;15.174;2023-05-10T05:32:36;4.60;;;4.13;;
4553;SDS011;2289;48.316;15.174;2023-05-10T05:35:05;7.23;;;4.00;;
4553;SDS011;2289;48.316;15.174;2023-05-10T05:37:34;8.20;;;3.70;;
4553;SDS011;2289;48.316;15.174;2023-05-10T05:40:04;6.60;;;4.87;;
4553;SDS011;2289;48.316;15.174;2023-05-10T05:42:33;8.00;;;5.10;;
4553;SDS011;2289;48.316;15.174;2023-05-10T05:45:02;8.37;;;4.50;;
4553;SDS011;2289;48.316;15.174;2023-05-10T05:47:33;5.53;;;4.60;;
4553;SDS011;2289;48.316;15.174;2023-05-10T05:50:03;6.67;;;4.30;;
4553;SDS011;2289;48.316;15.174;2023-05-10T05:52:33;4.60;;;4.00;;
4553;SDS011;2289;48.316;15.174;2023-05-10T05:55:01;6.30;;;3.93;;
4553;SDS011;2289;48.316;15.174;2023-05-10T05:57:31;6.30;;;3.90;;
4553;SDS011;2289;48.316;15.174;2023-05-10T06:00:00;6.10;;;4.13;;
4553;SDS011;2289;48.316;15.174;2023-05-10T06:02:29;5.37;;;3.20;;
4553;SDS011;2289;48.316;15.174;2023-05-10T06:05:00;5.63;;;4.20;;
4553;SDS011;2289;48.316;15.174;2023-05-10T06:07:28;4.50;;;4.10;;
4553;SDS011;2289;48.316;15.174;2023-05-10T06:09:57;6.13;;;3.40;;
4553;SDS011;2289;48.316;15.174;2023-05-10T06:12:25;4.90;;;4.20;;
4553;SDS011;2289;48.316;15.174;2023-05-10T06:14:54;6.07;;;3.70;;
4553;SDS011;2289;48.316;15.174;2023-05-10T06:17:22;4.60;;;4.17;;
4553;SDS011;2289;48.316;15.174;2023-05-10T06:19:52;4.07;;;3.67;;
4553;SDS011;2289;48.316;15.174;2023-05-10T06:22:22;7.43;;;4.07;;
4553;SDS011;2289;48.316;15.174;2023-05-10T06:24:51;12.50;;;5.37;;
4553;SDS011;2289;48.316;15.174;2023-05-10T06:27:20;6.00;;;4.33;;
4553;SDS011;2289;48.316;15.174;2023-05-10T06:29:49;10.27;;;4.50;;
4553;SDS011;2289;48.316;15.174;2023-05-10T06:32:24;7.10;;;4.67;;
4553;SDS011;2289;48.316;15.174;2023-05-10T06:34:53;10.70;;;4.50;;
4553;SDS011;2289;48.316;15.174;2023-05-10T06:37:24;8.37;;;4.20;;
4553;SDS011;2289;48.316;15.174;2023-05-10T06:39:53;3.80;;;3.50;;
4553;SDS011;2289;48.316;15.174;2023-05-10T06:42:22;5.73;;;4.90;;
4553;SDS011;2289;48.316;15.174;2023-05-10T06:44:52;6.90;;;4.30;;
4553;SDS011;2289;48.316;15.174;2023-05-10T06:47:21;4.90;;;3.47;;
4553;SDS011;2289;48.316;15.174;2023-05-10T06:49:49;5.63;;;3.63;;
4553;SDS011;2289;48.316;15.174;2023-05-10T06:52:18;5.37;;;4.40;;
4553;SDS011;2289;48.316;15.174;2023-05-10T06:54:49;5.27;;;3.93;;
4553;SDS011;2289;48.316;15.174;2023-05-10T06:57:18;7.60;;;3.70;;
4553;SDS011;2289;48.316;15.174;2023-05-10T06:59:57;7.20;;;5.00;;
4553;SDS011;2289;48.316;15.174;2023-05-10T07:02:26;5.53;;;4.80;;
4553;SDS011;2289;48.316;15.174;2023-05-10T07:04:55;11.20;;;4.57;;
4553;SDS011;2289;48.316;15.174;2023-05-10T07:07:28;5.10;;;3.70;;
4553;SDS011;2289;48.316;15.174;2023-05-10T07:09:59;5.30;;;4.27;;
4553;SDS011;2289;48.316;15.174;2023-05-10T07:12:27;6.20;;;4.00;;
4553;SDS011;2289;48.316;15.174;2023-05-10T07:14:56;3.17;;;2.90;;
4553;SDS011;2289;48.316;15.174;2023-05-10T07:17:25;6.73;;;3.87;;
4553;SDS011;2289;48.316;15.174;2023-05-10T07:19:54;7.30;;;4.37;;
4553;SDS011;2289;48.316;15.174;2023-05-10T07:22:23;10.80;;;4.13;;
4553;SDS011;2289;48.316;15.174;2023-05-10T07:24:52;13.73;;;5.37;;
4553;SDS011;2289;48.316;15.174;2023-05-10T07:27:22;6.93;;;4.40;;
4553;SDS011;2289;48.316;15.174;2023-05-10T07:29:51;7.33;;;4.50;;
4553;SDS011;2289;48.316;15.174;2023-05-10T07:32:19;9.10;;;5.00;;
4553;SDS011;2289;48.316;15.174;2023-05-10T07:34:48;6.40;;;5.50;;
4553;SDS011;2289;48.316;15.174;2023-05-10T07:37:17;7.40;;;4.50;;
4553;SDS011;2289;48.316;15.174;2023-05-10T07:39:46;16.13;;;6.33;;
4553;SDS011;2289;48.316;15.174;2023-05-10T07:42:15;13.63;;;6.50;;
4553;SDS011;2289;48.316;15.174;2023-05-10T07:44:45;10.90;;;7.50;;
4553;SDS011;2289;48.316;15.174;2023-05-10T07:47:14;9.10;;;5.90;;
4553;SDS011;2289;48.316;15.174;2023-05-10T07:49:43;11.93;;;7.70;;
4553;SDS011;2289;48.316;15.174;2023-05-10T07:52:12;10.87;;;7.23;;
4553;SDS011;2289;48.316;15.174;2023-05-10T07:54:42;6.73;;;5.47;;
4553;SDS011;2289;48.316;15.174;2023-05-10T07:57:11;6.00;;;5.27;;
4553;SDS011;2289;48.316;15.174;2023-05-10T07:59:41;6.03;;;4.90;;
4553;SDS011;2289;48.316;15.174;2023-05-10T08:02:11;6.87;;;4.23;;
4553;SDS011;2289;48.316;15.174;2023-05-10T08:04:40;5.30;;;4.00;;
4553;SDS011;2289;48.316;15.174;2023-05-10T08:07:09;5.23;;;4.60;;
4553;SDS011;2289;48.316;15.174;2023-05-10T08:09:38;5.90;;;4.83;;
4553;SDS011;2289;48.316;15.174;2023-05-10T08:12:07;5.40;;;3.73;;
4553;SDS011;2289;48.316;15.174;2023-05-10T08:14:37;4.73;;;4.00;;
4553;SDS011;2289;48.316;15.174;2023-05-10T08:17:05;6.47;;;4.30;;
4553;SDS011;2289;48.316;15.174;2023-05-10T08:19:35;21.37;;;13.30;;
4553;SDS011;2289;48.316;15.174;2023-05-10T08:22:04;20.70;;;11.27;;
4553;SDS011;2289;48.316;15.174;2023-05-10T08:24:33;15.60;;;9.03;;
4553;SDS011;2289;48.316;15.174;2023-05-10T08:27:05;12.60;;;7.93;;
4553;SDS011;2289;48.316;15.174;2023-05-10T08:29:34;6.30;;;4.93;;
4553;SDS011;2289;48.316;15.174;2023-05-10T08:32:15;5.10;;;3.63;;
4553;SDS011;2289;48.316;15.174;2023-05-10T08:34:45;4.63;;;3.57;;
4553;SDS011;2289;48.316;15.174;2023-05-10T08:37:13;4.07;;;3.50;;
4553;SDS011;2289;48.316;15.174;2023-05-10T08:39:43;4.70;;;3.07;;
4553;SDS011;2289;48.316;15.174;2023-05-10T08:42:15;4.83;;;2.83;;
4553;SDS011;2289;48.316;15.174;2023-05-10T08:44:46;4.87;;;2.60;;
4553;SDS011;2289;48.316;15.174;2023-05-10T08:47:16;2.77;;;2.37;;
4553;SDS011;2289;48.316;15.174;2023-05-10T08:49:48;3.53;;;2.80;;
4553;SDS011;2289;48.316;15.174;2023-05-10T08:52:18;5.70;;;3.07;;
4553;SDS011;2289;48.316;15.174;2023-05-10T08:54:47;4.67;;;3.33;;
4553;SDS011;2289;48.316;15.174;2023-05-10T08:57:15;4.23;;;2.87;;
4553;SDS011;2289;48.316;15.174;2023-05-10T08:59:44;3.57;;;2.87;;
4553;SDS011;2289;48.316;15.174;2023-05-10T09:02:13;4.90;;;3.27;;
4553;SDS011;2289;48.316;15.174;2023-05-10T09:04:44;3.17;;;2.87;;
4553;SDS011;2289;48.316;15.174;2023-05-10T09:07:15;3.60;;;3.00;;
4553;SDS011;2289;48.316;15.174;2023-05-10T09:09:45;2.77;;;2.30;;
4553;SDS011;2289;48.316;15.174;2023-05-10T09:12:15;3.90;;;2.27;;
4553;SDS011;2289;48.316;15.174;2023-05-10T09:14:46;4.13;;;3.30;;
4553;SDS011;2289;48.316;15.174;2023-05-10T09:17:15;7.03;;;3.03;;
4553;SDS011;2289;48.316;15.174;2023-05-10T09:19:44;4.00;;;2.60;;
4553;SDS011;2289;48.316;15.174;2023-05-10T09:22:15;3.73;;;2.27;;
4553;SDS011;2289;48.316;15.174;2023-05-10T09:24:44;3.37;;;2.47;;
4553;SDS011;2289;48.316;15.174;2023-05-10T09:27:13;2.30;;;2.10;;
4553;SDS011;2289;48.316;15.174;2023-05-10T09:29:42;2.63;;;2.43;;
4553;SDS011;2289;48.316;15.174;2023-05-10T09:32:12;6.30;;;2.67;;
4553;SDS011;2289;48.316;15.174;2023-05-10T09:34:43;3.17;;;2.87;;
4553;SDS011;2289;48.316;15.174;2023-05-10T09:37:12;8.40;;;3.17;;
4553;SDS011;2289;48.316;15.174;2023-05-10T09:39:42;3.40;;;2.20;;
4553;SDS011;2289;48.316;15.174;2023-05-10T09:42:11;3.30;;;3.00;;
4553;SDS011;2289;48.316;15.174;2023-05-10T09:44:39;3.83;;;2.73;;
4553;SDS011;2289;48.316;15.174;2023-05-10T09:47:10;9.07;;;3.10;;
4553;SDS011;2289;48.316;15.174;2023-05-10T09:49:49;3.60;;;3.00;;
4553;SDS011;2289;48.316;15.174;2023-05-10T09:52:18;4.57;;;3.40;;
4553;SDS011;2289;48.316;15.174;2023-05-10T09:54:53;4.30;;;2.70;;
4553;SDS011;2289;48.316;15.174;2023-05-10T09:57:23;2.80;;;2.53;;
4553;SDS011;2289;48.316;15.174;2023-05-10T09:59:52;4.07;;;3.10;;
4553;SDS011;2289;48.316;15.174;2023-05-10T10:02:27;12.33;;;6.80;;
4553;SDS011;2289;48.316;15.174;2023-05-10T10:04:57;4.00;;;3.43;;
4553;SDS011;2289;48.316;15.174;2023-05-10T10:07:27;4.07;;;3.00;;
4553;SDS011;2289;48.316;15.174;2023-05-10T10:09:57;4.63;;;2.77;;
4553;SDS011;2289;48.316;15.174;2023-05-10T10:12:27;4.30;;;3.17;;
4553;SDS011;2289;48.316;15.174;2023-05-10T10:14:56;3.43;;;2.57;;
4553;SDS011;2289;48.316;15.174;2023-05-10T10:17:28;3.73;;;2.63;;
4553;SDS011;2289;48.316;15.174;2023-05-10T10:19:59;3.60;;;3.30;;
4553;SDS011;2289;48.316;15.174;2023-05-10T10:22:27;5.47;;;3.93;;
4553;SDS011;2289;48.316;15.174;2023-05-10T10:24:58;3.57;;;2.87;;
4553;SDS011;2289;48.316;15.174;2023-05-10T10:27:28;3.40;;;2.90;;
4553;SDS011;2289;48.316;15.174;2023-05-10T10:30:07;3.83;;;2.60;;
4553;SDS011;2289;48.316;15.174;2023-05-10T10:32:45;2.80;;;2.17;;
4553;SDS011;2289;48.316;15.174;2023-05-10T10:35:52;3.10;;;2.43;;
4553;SDS011;2289;48.316;15.174;2023-05-10T10:38:21;2.23;;;2.00;;
4553;SDS011;2289;48.316;15.174;2023-05-10T10:41:02;10.10;;;2.87;;
4553;SDS011;2289;48.316;15.174;2023-05-10T10:43:34;3.23;;;2.70;;
4553;SDS011;2289;48.316;15.174;2023-05-10T10:46:10;3.90;;;3.20;;
4553;SDS011;2289;48.316;15.174;2023-05-10T10:48:40;3.07;;;2.77;;
4553;SDS011;2289;48.316;15.174;2023-05-10T10:51:12;2.93;;;2.27;;
4553;SDS011;2289;48.316;15.174;2023-05-10T10:53:42;2.77;;;2.57;;
4553;SDS011;2289;48.316;15.174;2023-05-10T10:56:13;2.87;;;2.30;;
4553;SDS011;2289;48.316;15.174;2023-05-10T10:58:48;2.13;;;2.00;;
4553;SDS011;2289;48.316;15.174;2023-05-10T11:01:18;2.43;;;2.23;;
4553;SDS011;2289;48.316;15.174;2023-05-10T11:06:47;4.47;;;2.70;;
4553;SDS011;2289;48.316;15.174;2023-05-10T11:09:16;2.80;;;2.10;;
4553;SDS011;2289;48.316;15.174;2023-05-10T11:11:52;2.83;;;2.43;;
4553;SDS011;2289;48.316;15.174;2023-05-10T11:14:23;4.03;;;3.00;;
4553;SDS011;2289;48.316;15.174;2023-05-10T11:16:52;4.03;;;2.10;;
4553;SDS011;2289;48.316;15.174;2023-05-10T11:19:21;2.93;;;2.50;;
4553;SDS011;2289;48.316;15.174;2023-05-10T11:24:44;5.20;;;4.70;;
4553;SDS011;2289;48.316;15.174;2023-05-10T11:27:26;5.77;;;4.83;;
4553;SDS011;2289;48.316;15.174;2023-05-10T11:29:55;6.53;;;5.80;;
4553;SDS011;2289;48.316;15.174;2023-05-10T11:32:24;5.03;;;4.57;;
4553;SDS011;2289;48.316;15.174;2023-05-10T11:34:53;5.13;;;3.80;;
4553;SDS011;2289;48.316;15.174;2023-05-10T11:37:22;2.87;;;2.23;;
4553;SDS011;2289;48.316;15.174;2023-05-10T11:39:50;2.93;;;2.73;;
4553;SDS011;2289;48.316;15.174;2023-05-10T11:42:20;3.70;;;1.90;;
4553;SDS011;2289;48.316;15.174;2023-05-10T11:44:50;2.70;;;2.20;;
4553;SDS011;2289;48.316;15.174;2023-05-10T11:47:19;4.47;;;2.40;;
4553;SDS011;2289;48.316;15.174;2023-05-10T11:49:47;4.17;;;2.27;;
4553;SDS011;2289;48.316;15.174;2023-05-10T11:52:18;2.70;;;2.30;;
4553;SDS011;2289;48.316;15.174;2023-05-10T11:54:50;2.03;;;1.90;;
4553;SDS011;2289;48.316;15.174;2023-05-10T11:57:20;2.93;;;2.63;;
4553;SDS011;2289;48.316;15.174;2023-05-10T11:59:55;2.73;;;2.43;;
4553;SDS011;2289;48.316;15.174;2023-05-10T12:02:25;2.40;;;1.90;;
4553;SDS011;2289;48.316;15.174;2023-05-10T12:04:55;3.60;;;3.30;;
4553;SDS011;2289;48.316;15.174;2023-05-10T12:07:25;2.10;;;1.90;;
4553;SDS011;2289;48.316;15.174;2023-05-10T12:10:07;6.13;;;3.80;;
4553;SDS011;2289;48.316;15.174;2023-05-10T12:12:37;4.40;;;3.20;;
4553;SDS011;2289;48.316;15.174;2023-05-10T12:15:16;5.93;;;4.33;;
4553;SDS011;2289;48.316;15.174;2023-05-10T12:17:47;10.33;;;6.90;;
4553;SDS011;2289;48.316;15.174;2023-05-10T12:20:16;9.00;;;4.83;;
4553;SDS011;2289;48.316;15.174;2023-05-10T12:22:49;8.47;;;4.27;;
4553;SDS011;2289;48.316;15.174;2023-05-10T12:25:18;6.47;;;4.17;;
4553;SDS011;2289;48.316;15.174;2023-05-10T12:27:50;5.90;;;4.10;;
4553;SDS011;2289;48.316;15.174;2023-05-10T12:30:38;6.50;;;3.43;;
4553;SDS011;2289;48.316;15.174;2023-05-10T12:33:08;4.50;;;3.70;;
4553;SDS011;2289;48.316;15.174;2023-05-10T12:35:44;3.20;;;2.90;;
4553;SDS011;2289;48.316;15.174;2023-05-10T12:38:27;2.70;;;2.10;;
4553;SDS011;2289;48.316;15.174;2023-05-10T12:41:00;4.70;;;2.87;;
4553;SDS011;2289;48.316;15.174;2023-05-10T12:43:29;4.87;;;2.93;;
4553;SDS011;2289;48.316;15.174;2023-05-10T12:46:05;2.30;;;2.10;;
4553;SDS011;2289;48.316;15.174;2023-05-10T12:48:35;2.40;;;2.20;;
4553;SDS011;2289;48.316;15.174;2023-05-10T12:51:04;3.30;;;2.73;;
4553;SDS011;2289;48.316;15.174;2023-05-10T12:53:36;2.87;;;2.40;;
4553;SDS011;2289;48.316;15.174;2023-05-10T12:56:07;3.33;;;2.77;;
4553;SDS011;2289;48.316;15.174;2023-05-10T12:58:36;4.70;;;2.97;;
4553;SDS011;2289;48.316;15.174;2023-05-10T13:01:06;3.07;;;2.77;;
4553;SDS011;2289;48.316;15.174;2023-05-10T13:03:35;3.40;;;2.37;;
4553;SDS011;2289;48.316;15.174;2023-05-10T13:06:03;2.67;;;2.20;;
4553;SDS011;2289;48.316;15.174;2023-05-10T13:08:33;2.90;;;2.20;;
4553;SDS011;2289;48.316;15.174;2023-05-10T13:11:02;2.37;;;2.17;;
4553;SDS011;2289;48.316;15.174;2023-05-10T13:13:31;2.43;;;2.23;;
4553;SDS011;2289;48.316;15.174;2023-05-10T13:16:00;1.93;;;1.80;;
4553;SDS011;2289;48.316;15.174;2023-05-10T13:18:31;2.33;;;1.87;;
4553;SDS011;2289;48.316;15.174;2023-05-10T13:21:00;2.77;;;2.30;;
4553;SDS011;2289;48.316;15.174;2023-05-10T13:23:30;2.73;;;2.50;;
4553;SDS011;2289;48.316;15.174;2023-05-10T13:25:59;2.33;;;2.10;;
4553;SDS011;2289;48.316;15.174;2023-05-10T13:28:28;3.30;;;2.60;;
4553;SDS011;2289;48.316;15.174;2023-05-10T13:30:57;2.27;;;2.07;;
4553;SDS011;2289;48.316;15.174;2023-05-10T13:33:28;2.77;;;2.47;;
4553;SDS011;2289;48.316;15.174;2023-05-10T13:35:58;2.57;;;2.00;;
4553;SDS011;2289;48.316;15.174;2023-05-10T13:38:27;4.87;;;1.93;;
4553;SDS011;2289;48.316;15.174;2023-05-10T13:40:56;2.10;;;1.87;;
4553;SDS011;2289;48.316;15.174;2023-05-10T13:43:25;2.10;;;1.90;;
4553;SDS011;2289;48.316;15.174;2023-05-10T13:45:54;2.50;;;2.30;;
4553;SDS011;2289;48.316;15.174;2023-05-10T13:48:23;2.83;;;2.20;;
4553;SDS011;2289;48.316;15.174;2023-05-10T13:50:52;7.10;;;6.40;;
4553;SDS011;2289;48.316;15.174;2023-05-10T13:53:23;8.47;;;7.10;;
4553;SDS011;2289;48.316;15.174;2023-05-10T13:55:51;2.70;;;2.40;;
4553;SDS011;2289;48.316;15.174;2023-05-10T13:58:20;3.73;;;3.07;;
4553;SDS011;2289;48.316;15.174;2023-05-10T14:00:50;3.33;;;3.00;;
4553;SDS011;2289;48.316;15.174;2023-05-10T14:03:19;8.27;;;4.23;;
4553;SDS011;2289;48.316;15.174;2023-05-10T14:05:48;2.97;;;2.77;;
4553;SDS011;2289;48.316;15.174;2023-05-10T14:08:17;3.53;;;2.47;;
4553;SDS011;2289;48.316;15.174;2023-05-10T14:10:48;2.60;;;2.40;;
4553;SDS011;2289;48.316;15.174;2023-05-10T14:13:17;3.03;;;2.57;;
4553;SDS011;2289;48.316;15.174;2023-05-10T14:15:46;4.03;;;2.53;;
4553;SDS011;2289;48.316;15.174;2023-05-10T14:18:15;2.50;;;2.30;;
4553;SDS011;2289;48.316;15.174;2023-05-10T14:20:43;3.17;;;2.87;;
4553;SDS011;2289;48.316;15.174;2023-05-10T14:23:12;4.30;;;2.80;;
4553;SDS011;2289;48.316;15.174;2023-05-10T14:25:41;4.20;;;3.00;;
4553;SDS011;2289;48.316;15.174;2023-05-10T14:28:11;3.37;;;3.07;;
4553;SDS011;2289;48.316;15.174;2023-05-10T14:30:41;2.77;;;2.57;;
4553;SDS011;2289;48.316;15.174;2023-05-10T14:33:11;4.43;;;2.90;;
4553;SDS011;2289;48.316;15.174;2023-05-10T14:35:40;2.20;;;2.00;;
4553;SDS011;2289;48.316;15.174;2023-05-10T14:38:09;3.90;;;2.27;;
4553;SDS011;2289;48.316;15.174;2023-05-10T14:40:39;5.93;;;2.20;;
4553;SDS011;2289;48.316;15.174;2023-05-10T14:43:07;3.00;;;2.47;;
4553;SDS011;2289;48.316;15.174;2023-05-10T14:45:38;4.70;;;2.70;;
4553;SDS011;2289;48.316;15.174;2023-05-10T14:48:06;4.13;;;3.20;;
4553;SDS011;2289;48.316;15.174;2023-05-10T14:50:39;5.50;;;4.27;;
4553;SDS011;2289;48.316;15.174;2023-05-10T14:53:09;4.23;;;3.67;;
4553;SDS011;2289;48.316;15.174;2023-05-10T14:55:42;5.33;;;3.90;;
4553;SDS011;2289;48.316;15.174;2023-05-10T14:58:11;4.30;;;3.93;;
4553;SDS011;2289;48.316;15.174;2023-05-10T15:00:41;5.50;;;3.80;;
4553;SDS011;2289;48.316;15.174;2023-05-10T15:03:10;3.90;;;3.50;;
4553;SDS011;2289;48.316;15.174;2023-05-10T15:05:40;5.63;;;3.67;;
4553;SDS011;2289;48.316;15.174;2023-05-10T15:08:09;5.80;;;3.80;;
4553;SDS011;2289;48.316;15.174;2023-05-10T15:10:39;4.63;;;3.53;;
4553;SDS011;2289;48.316;15.174;2023-05-10T15:13:09;4.90;;;4.07;;
4553;SDS011;2289;48.316;15.174;2023-05-10T15:15:37;6.50;;;4.47;;
4553;SDS011;2289;48.316;15.174;2023-05-10T15:18:08;8.57;;;5.73;;
4553;SDS011;2289;48.316;15.174;2023-05-10T15:20:36;4.80;;;3.90;;
4553;SDS011;2289;48.316;15.174;2023-05-10T15:23:05;5.47;;;4.40;;
4553;SDS011;2289;48.316;15.174;2023-05-10T15:25:33;5.03;;;4.53;;
4553;SDS011;2289;48.316;15.174;2023-05-10T15:28:04;6.20;;;4.50;;
4553;SDS011;2289;48.316;15.174;2023-05-10T15:30:33;6.50;;;5.47;;